sensor_id;sensor_type;location;lat;lon;timestamp;pressure;altitude;pressure_sealevel;temperature;humidity
60489;BME280;46331;49.252;8.904;2023-04-26T00:00:16;99858.63;;;4.78;92.63
60489;BME280;46331;49.252;8.904;2023-04-26T00:01:01;99860.47;;;4.78;92.74
60489;BME280;46331;49.252;8.904;2023-04-26T00:01:43;99858.22;;;4.75;92.91
60489;BME280;46331;49.252;8.904;2023-04-26T00:02:23;99863.88;;;4.72;92.56
60489;BME280;46331;49.252;8.904;2023-04-26T00:03:06;99871.75;;;4.72;92.98
60489;BME280;46331;49.252;8.904;2023-04-26T00:03:46;99858.81;;;4.70;93.35
60489;BME280;46331;49.252;8.904;2023-04-26T00:04:27;99857.97;;;4.70;93.19
60489;BME280;46331;49.252;8.904;2023-04-26T00:05:08;99857.97;;;4.70;93.27
60489;BME280;46331;49.252;8.904;2023-04-26T00:05:48;99861.81;;;4.67;93.05
60489;BME280;46331;49.252;8.904;2023-04-26T00:06:29;99855.72;;;4.66;93.10
60489;BME280;46331;49.252;8.904;2023-04-26T00:07:10;99864.84;;;4.64;93.10
60489;BME280;46331;49.252;8.904;2023-04-26T00:07:52;99865.03;;;4.62;93.11
60489;BME280;46331;49.252;8.904;2023-04-26T00:08:33;99863.59;;;4.60;93.24
60489;BME280;46331;49.252;8.904;2023-04-26T00:09:14;99850.84;;;4.57;93.16
60489;BME280;46331;49.252;8.904;2023-04-26T00:09:54;99864.16;;;4.55;92.97
60489;BME280;46331;49.252;8.904;2023-04-26T00:10:35;99854.06;;;4.52;93.50
60489;BME280;46331;49.252;8.904;2023-04-26T00:11:16;99861.31;;;4.50;93.45
60489;BME280;46331;49.252;8.904;2023-04-26T00:11:56;99860.88;;;4.46;93.76
60489;BME280;46331;49.252;8.904;2023-04-26T00:12:37;99864.72;;;4.44;93.67
60489;BME280;46331;49.252;8.904;2023-04-26T00:13:17;99863.06;;;4.36;94.19
60489;BME280;46331;49.252;8.904;2023-04-26T00:13:58;99859.41;;;4.37;94.19
60489;BME280;46331;49.252;8.904;2023-04-26T00:14:39;99858.63;;;4.37;93.99
60489;BME280;46331;49.252;8.904;2023-04-26T00:15:19;99864.25;;;4.34;93.97
60489;BME280;46331;49.252;8.904;2023-04-26T00:16:00;99863.66;;;4.32;94.33
60489;BME280;46331;49.252;8.904;2023-04-26T00:16:40;99861.03;;;4.32;94.28
60489;BME280;46331;49.252;8.904;2023-04-26T00:17:22;99862.19;;;4.29;94.34
60489;BME280;46331;49.252;8.904;2023-04-26T00:18:03;99864.03;;;4.28;94.52
60489;BME280;46331;49.252;8.904;2023-04-26T00:18:43;99857.16;;;4.27;94.20
60489;BME280;46331;49.252;8.904;2023-04-26T00:19:25;99863.56;;;4.25;94.36
60489;BME280;46331;49.252;8.904;2023-04-26T00:20:07;99861.16;;;4.23;94.82
60489;BME280;46331;49.252;8.904;2023-04-26T00:20:49;99867.03;;;4.25;94.76
60489;BME280;46331;49.252;8.904;2023-04-26T00:21:30;99858.13;;;4.26;95.21
60489;BME280;46331;49.252;8.904;2023-04-26T00:22:11;99866.66;;;4.28;94.90
60489;BME280;46331;49.252;8.904;2023-04-26T00:22:52;99869.28;;;4.28;94.87
60489;BME280;46331;49.252;8.904;2023-04-26T00:23:32;99870.06;;;4.29;94.91
60489;BME280;46331;49.252;8.904;2023-04-26T00:24:15;99868.44;;;4.28;94.85
60489;BME280;46331;49.252;8.904;2023-04-26T00:24:56;99869.47;;;4.27;94.97
60489;BME280;46331;49.252;8.904;2023-04-26T00:25:37;99869.47;;;4.27;94.57
60489;BME280;46331;49.252;8.904;2023-04-26T00:26:18;99864.41;;;4.25;94.73
60489;BME280;46331;49.252;8.904;2023-04-26T00:26:58;99862.78;;;4.24;94.44
60489;BME280;46331;49.252;8.904;2023-04-26T00:27:39;99861.78;;;4.25;94.63
60489;BME280;46331;49.252;8.904;2023-04-26T00:28:20;99863.56;;;4.25;94.81
60489;BME280;46331;49.252;8.904;2023-04-26T00:29:03;99866.00;;;4.26;94.69
60489;BME280;46331;49.252;8.904;2023-04-26T00:29:43;99871.25;;;4.26;94.69
60489;BME280;46331;49.252;8.904;2023-04-26T00:30:24;99866.19;;;4.25;94.48
60489;BME280;46331;49.252;8.904;2023-04-26T00:31:04;99871.84;;;4.22;94.40
60489;BME280;46331;49.252;8.904;2023-04-26T00:31:45;99874.28;;;4.23;94.71
60489;BME280;46331;49.252;8.904;2023-04-26T00:32:26;99869.28;;;4.28;94.71
60489;BME280;46331;49.252;8.904;2023-04-26T00:33:07;99865.63;;;4.29;94.58
60489;BME280;46331;49.252;8.904;2023-04-26T00:33:47;99869.88;;;4.30;94.38
60489;BME280;46331;49.252;8.904;2023-04-26T00:34:36;99868.69;;;4.33;94.43
60489;BME280;46331;49.252;8.904;2023-04-26T00:35:16;99866.28;;;4.32;94.16
60489;BME280;46331;49.252;8.904;2023-04-26T00:35:57;99869.50;;;4.34;94.24
60489;BME280;46331;49.252;8.904;2023-04-26T00:36:38;99870.31;;;4.34;94.00
60489;BME280;46331;49.252;8.904;2023-04-26T00:37:18;99873.94;;;4.33;93.62
60489;BME280;46331;49.252;8.904;2023-04-26T00:37:59;99871.53;;;4.32;93.90
60489;BME280;46331;49.252;8.904;2023-04-26T00:38:40;99864.63;;;4.30;94.06
60489;BME280;46331;49.252;8.904;2023-04-26T00:39:21;99870.50;;;4.33;94.00
60489;BME280;46331;49.252;8.904;2023-04-26T00:40:02;99870.69;;;4.31;94.03
60489;BME280;46331;49.252;8.904;2023-04-26T00:40:42;99865.88;;;4.35;93.98
60489;BME280;46331;49.252;8.904;2023-04-26T00:41:23;99863.44;;;4.33;93.70
60489;BME280;46331;49.252;8.904;2023-04-26T00:42:04;99859.00;;;4.34;93.38
60489;BME280;46331;49.252;8.904;2023-04-26T00:42:44;99867.88;;;4.33;93.20
60489;BME280;46331;49.252;8.904;2023-04-26T00:43:25;99865.63;;;4.29;93.11
60489;BME280;46331;49.252;8.904;2023-04-26T00:44:05;99864.22;;;4.27;92.87
60489;BME280;46331;49.252;8.904;2023-04-26T00:44:46;99861.59;;;4.27;93.03
60489;BME280;46331;49.252;8.904;2023-04-26T00:45:27;99861.78;;;4.25;92.80
60489;BME280;46331;49.252;8.904;2023-04-26T00:46:08;99861.97;;;4.24;92.78
60489;BME280;46331;49.252;8.904;2023-04-26T00:46:51;99863.97;;;4.22;92.67
60489;BME280;46331;49.252;8.904;2023-04-26T00:47:32;99861.72;;;4.19;92.92
60489;BME280;46331;49.252;8.904;2023-04-26T00:48:14;99856.06;;;4.15;92.50
60489;BME280;46331;49.252;8.904;2023-04-26T00:48:55;99856.44;;;4.12;92.82
60489;BME280;46331;49.252;8.904;2023-04-26T00:49:36;99863.06;;;4.08;92.77
60489;BME280;46331;49.252;8.904;2023-04-26T00:50:17;99859.81;;;4.06;92.96
60489;BME280;46331;49.252;8.904;2023-04-26T00:51:00;99866.25;;;4.03;93.18
60489;BME280;46331;49.252;8.904;2023-04-26T00:51:42;99859.59;;;4.01;93.36
60489;BME280;46331;49.252;8.904;2023-04-26T00:52:23;99854.34;;;4.01;93.40
60489;BME280;46331;49.252;8.904;2023-04-26T00:53:04;99864.84;;;4.01;93.52
60489;BME280;46331;49.252;8.904;2023-04-26T00:53:47;99863.03;;;4.01;93.54
60489;BME280;46331;49.252;8.904;2023-04-26T00:54:28;99864.84;;;4.01;93.26
60489;BME280;46331;49.252;8.904;2023-04-26T00:55:09;99862.41;;;3.99;93.18
60489;BME280;46331;49.252;8.904;2023-04-26T00:55:50;99860.59;;;4.00;93.00
60489;BME280;46331;49.252;8.904;2023-04-26T00:56:31;99856.53;;;3.97;92.75
60489;BME280;46331;49.252;8.904;2023-04-26T00:57:12;99861.16;;;3.95;92.71
60489;BME280;46331;49.252;8.904;2023-04-26T00:57:52;99857.72;;;3.94;93.03
60489;BME280;46331;49.252;8.904;2023-04-26T00:58:33;99861.16;;;3.95;92.86
60489;BME280;46331;49.252;8.904;2023-04-26T00:59:14;99857.91;;;3.93;92.80
60489;BME280;46331;49.252;8.904;2023-04-26T00:59:54;99857.91;;;3.93;92.76
60489;BME280;46331;49.252;8.904;2023-04-26T01:00:35;99859.09;;;3.90;92.76
60489;BME280;46331;49.252;8.904;2023-04-26T01:01:16;99858.69;;;3.87;92.19
60489;BME280;46331;49.252;8.904;2023-04-26T01:01:56;99857.25;;;3.84;92.34
60489;BME280;46331;49.252;8.904;2023-04-26T01:02:37;99856.63;;;3.82;92.78
60489;BME280;46331;49.252;8.904;2023-04-26T01:03:18;99857.00;;;3.79;92.54
60489;BME280;46331;49.252;8.904;2023-04-26T01:03:58;99860.81;;;3.76;92.81
60489;BME280;46331;49.252;8.904;2023-04-26T01:04:39;99865.25;;;3.76;93.09
60489;BME280;46331;49.252;8.904;2023-04-26T01:05:21;99858.38;;;3.75;93.35
60489;BME280;46331;49.252;8.904;2023-04-26T01:06:01;99863.00;;;3.73;93.42
60489;BME280;46331;49.252;8.904;2023-04-26T01:06:42;99858.75;;;3.72;93.40
60489;BME280;46331;49.252;8.904;2023-04-26T01:07:23;99861.56;;;3.70;93.32
60489;BME280;46331;49.252;8.904;2023-04-26T01:08:05;99860.94;;;3.68;93.34
60489;BME280;46331;49.252;8.904;2023-04-26T01:08:45;99868.81;;;3.68;93.59
60489;BME280;46331;49.252;8.904;2023-04-26T01:09:27;99866.38;;;3.67;93.58
60489;BME280;46331;49.252;8.904;2023-04-26T01:10:09;99865.75;;;3.65;93.54
60489;BME280;46331;49.252;8.904;2023-04-26T01:10:49;99864.94;;;3.64;93.54
60489;BME280;46331;49.252;8.904;2023-04-26T01:11:31;99866.75;;;3.64;93.64
60489;BME280;46331;49.252;8.904;2023-04-26T01:12:13;99871.81;;;3.65;94.02
60489;BME280;46331;49.252;8.904;2023-04-26T01:12:53;99868.38;;;3.65;93.72
60489;BME280;46331;49.252;8.904;2023-04-26T01:13:34;99867.38;;;3.66;93.60
60489;BME280;46331;49.252;8.904;2023-04-26T01:14:16;99866.75;;;3.64;93.27
60489;BME280;46331;49.252;8.904;2023-04-26T01:14:58;99866.31;;;3.60;93.17
60489;BME280;46331;49.252;8.904;2023-04-26T01:15:46;99870.13;;;3.57;93.11
60489;BME280;46331;49.252;8.904;2023-04-26T01:16:27;99867.88;;;3.54;93.15
60489;BME280;46331;49.252;8.904;2023-04-26T01:17:07;99867.25;;;3.52;93.18
60489;BME280;46331;49.252;8.904;2023-04-26T01:17:48;99860.78;;;3.48;92.93
60489;BME280;46331;49.252;8.904;2023-04-26T01:18:30;99863.75;;;3.45;93.35
60489;BME280;46331;49.252;8.904;2023-04-26T01:19:10;99870.38;;;3.41;93.52
60489;BME280;46331;49.252;8.904;2023-04-26T01:19:52;99865.50;;;3.38;93.76
60489;BME280;46331;49.252;8.904;2023-04-26T01:20:33;99863.88;;;3.37;94.08
60489;BME280;46331;49.252;8.904;2023-04-26T01:21:19;99868.50;;;3.35;94.13
60489;BME280;46331;49.252;8.904;2023-04-26T01:22:01;99866.25;;;3.32;94.18
60489;BME280;46331;49.252;8.904;2023-04-26T01:22:41;99865.63;;;3.30;94.36
60489;BME280;46331;49.252;8.904;2023-04-26T01:23:22;99869.41;;;3.27;94.15
60489;BME280;46331;49.252;8.904;2023-04-26T01:24:03;99867.78;;;3.26;94.31
60489;BME280;46331;49.252;8.904;2023-04-26T01:24:48;99863.75;;;3.24;94.68
60489;BME280;46331;49.252;8.904;2023-04-26T01:25:29;99868.72;;;3.18;95.20
60489;BME280;46331;49.252;8.904;2023-04-26T01:26:10;99876.38;;;3.20;94.95
60489;BME280;46331;49.252;8.904;2023-04-26T01:26:50;99870.97;;;3.21;94.96
60489;BME280;46331;49.252;8.904;2023-04-26T01:27:31;99867.53;;;3.21;94.90
60489;BME280;46331;49.252;8.904;2023-04-26T01:28:11;99866.91;;;3.19;94.96
60489;BME280;46331;49.252;8.904;2023-04-26T01:28:52;99866.91;;;3.19;95.00
60489;BME280;46331;49.252;8.904;2023-04-26T01:29:32;99869.72;;;3.17;94.75
60489;BME280;46331;49.252;8.904;2023-04-26T01:30:13;99875.97;;;3.16;95.08
60489;BME280;46331;49.252;8.904;2023-04-26T01:30:53;99870.72;;;3.16;95.08
60489;BME280;46331;49.252;8.904;2023-04-26T01:31:34;99869.25;;;3.14;95.15
60489;BME280;46331;49.252;8.904;2023-04-26T01:32:15;99869.25;;;3.14;95.04
60489;BME280;46331;49.252;8.904;2023-04-26T01:32:55;99863.41;;;3.12;95.08
60489;BME280;46331;49.252;8.904;2023-04-26T01:33:39;99870.09;;;3.14;94.94
60489;BME280;46331;49.252;8.904;2023-04-26T01:34:19;99870.09;;;3.14;95.01
60489;BME280;46331;49.252;8.904;2023-04-26T01:35:00;99863.22;;;3.13;95.02
60489;BME280;46331;49.252;8.904;2023-04-26T01:35:41;99873.72;;;3.13;95.17
60489;BME280;46331;49.252;8.904;2023-04-26T01:36:21;99866.03;;;3.12;95.36
60489;BME280;46331;49.252;8.904;2023-04-26T01:37:02;99866.03;;;3.12;95.35
60489;BME280;46331;49.252;8.904;2023-04-26T01:37:43;99873.28;;;3.10;95.33
60489;BME280;46331;49.252;8.904;2023-04-26T01:38:23;99862.97;;;3.08;95.36
60489;BME280;46331;49.252;8.904;2023-04-26T01:39:04;99860.97;;;3.10;95.34
60489;BME280;46331;49.252;8.904;2023-04-26T01:39:44;99860.97;;;3.10;95.33
60489;BME280;46331;49.252;8.904;2023-04-26T01:40:25;99862.97;;;3.08;95.42
60489;BME280;46331;49.252;8.904;2023-04-26T01:41:06;99858.72;;;3.07;95.50
60489;BME280;46331;49.252;8.904;2023-04-26T01:41:46;99861.97;;;3.09;95.33
60489;BME280;46331;49.252;8.904;2023-04-26T01:42:27;99863.78;;;3.09;95.35
60489;BME280;46331;49.252;8.904;2023-04-26T01:43:07;99859.53;;;3.08;95.68
60489;BME280;46331;49.252;8.904;2023-04-26T01:43:48;99856.91;;;3.08;95.42
60489;BME280;46331;49.252;8.904;2023-04-26T01:44:29;99857.09;;;3.06;95.53
60489;BME280;46331;49.252;8.904;2023-04-26T01:45:09;99856.28;;;3.06;95.14
60489;BME280;46331;49.252;8.904;2023-04-26T01:46:23;99862.50;;;3.04;95.27
60489;BME280;46331;49.252;8.904;2023-04-26T01:47:03;99860.06;;;3.03;95.57
60489;BME280;46331;49.252;8.904;2023-04-26T01:47:45;99862.69;;;3.03;95.04
60489;BME280;46331;49.252;8.904;2023-04-26T01:48:25;99861.91;;;3.02;95.42
60489;BME280;46331;49.252;8.904;2023-04-26T01:49:06;99854.03;;;3.02;95.46
60489;BME280;46331;49.252;8.904;2023-04-26T01:49:46;99865.97;;;3.05;95.54
60489;BME280;46331;49.252;8.904;2023-04-26T01:50:27;99862.50;;;3.04;95.30
60489;BME280;46331;49.252;8.904;2023-04-26T01:51:07;99856.47;;;3.04;94.96
60489;BME280;46331;49.252;8.904;2023-04-26T01:51:49;99862.88;;;3.01;94.76
60489;BME280;46331;49.252;8.904;2023-04-26T01:52:29;99863.91;;;3.00;94.67
60489;BME280;46331;49.252;8.904;2023-04-26T01:53:10;99856.84;;;3.01;94.62
60489;BME280;46331;49.252;8.904;2023-04-26T01:53:51;99858.84;;;2.99;94.44
60489;BME280;46331;49.252;8.904;2023-04-26T01:54:32;99859.81;;;2.98;94.99
60489;BME280;46331;49.252;8.904;2023-04-26T01:55:13;99854.78;;;2.96;95.36
60489;BME280;46331;49.252;8.904;2023-04-26T01:55:55;99853.78;;;2.97;95.33
60489;BME280;46331;49.252;8.904;2023-04-26T01:56:35;99855.03;;;3.01;95.56
60489;BME280;46331;49.252;8.904;2023-04-26T01:57:16;99861.09;;;3.02;95.46
60489;BME280;46331;49.252;8.904;2023-04-26T01:57:58;99848.59;;;3.04;95.49
60489;BME280;46331;49.252;8.904;2023-04-26T01:58:38;99854.03;;;3.02;95.30
60489;BME280;46331;49.252;8.904;2023-04-26T01:59:19;99860.91;;;3.03;95.22
60489;BME280;46331;49.252;8.904;2023-04-26T01:59:59;99855.03;;;3.01;94.68
60489;BME280;46331;49.252;8.904;2023-04-26T02:00:54;99854.59;;;2.98;94.57
60489;BME280;46331;49.252;8.904;2023-04-26T02:01:35;99854.78;;;2.96;94.29
60489;BME280;46331;49.252;8.904;2023-04-26T02:02:16;99860.38;;;2.93;94.45
60489;BME280;46331;49.252;8.904;2023-04-26T02:02:58;99856.97;;;2.93;94.66
60489;BME280;46331;49.252;8.904;2023-04-26T02:03:38;99852.88;;;2.90;94.57
60489;BME280;46331;49.252;8.904;2023-04-26T02:04:19;99854.06;;;2.88;94.51
60489;BME280;46331;49.252;8.904;2023-04-26T02:04:59;99850.00;;;2.85;94.01
60489;BME280;46331;49.252;8.904;2023-04-26T02:05:40;99853.81;;;2.82;94.23
60489;BME280;46331;49.252;8.904;2023-04-26T02:06:21;99859.03;;;2.82;94.91
60489;BME280;46331;49.252;8.904;2023-04-26T02:07:02;99847.94;;;2.80;95.67
60489;BME280;46331;49.252;8.904;2023-04-26T02:07:42;99852.81;;;2.83;95.58
60489;BME280;46331;49.252;8.904;2023-04-26T02:08:23;99855.63;;;2.82;94.92
60489;BME280;46331;49.252;8.904;2023-04-26T02:09:03;99854.16;;;2.79;94.57
60489;BME280;46331;49.252;8.904;2023-04-26T02:09:44;99861.22;;;2.79;94.59
60489;BME280;46331;49.252;8.904;2023-04-26T02:10:25;99861.41;;;2.77;94.48
60489;BME280;46331;49.252;8.904;2023-04-26T02:11:06;99857.34;;;2.75;94.66
60489;BME280;46331;49.252;8.904;2023-04-26T02:11:46;99861.78;;;2.74;94.63
60489;BME280;46331;49.252;8.904;2023-04-26T02:12:27;99859.69;;;2.70;94.69
60489;BME280;46331;49.252;8.904;2023-04-26T02:13:07;99854.81;;;2.66;95.05
60489;BME280;46331;49.252;8.904;2023-04-26T02:13:48;99862.69;;;2.66;95.26
60489;BME280;46331;49.252;8.904;2023-04-26T02:14:28;99862.03;;;2.64;95.45
60489;BME280;46331;49.252;8.904;2023-04-26T02:15:09;99852.72;;;2.62;95.25
60489;BME280;46331;49.252;8.904;2023-04-26T02:15:53;99857.34;;;2.60;95.45
60489;BME280;46331;49.252;8.904;2023-04-26T02:16:33;99862.75;;;2.58;95.31
60489;BME280;46331;49.252;8.904;2023-04-26T02:17:14;99860.13;;;2.58;95.32
60489;BME280;46331;49.252;8.904;2023-04-26T02:17:55;99854.47;;;2.55;95.62
60489;BME280;46331;49.252;8.904;2023-04-26T02:18:36;99854.81;;;2.52;95.88
60489;BME280;46331;49.252;8.904;2023-04-26T02:19:16;99860.06;;;2.52;95.97
60489;BME280;46331;49.252;8.904;2023-04-26T02:19:57;99854.81;;;2.52;95.90
60489;BME280;46331;49.252;8.904;2023-04-26T02:20:41;99866.09;;;2.52;96.27
60489;BME280;46331;49.252;8.904;2023-04-26T02:21:25;99860.84;;;2.52;96.12
60489;BME280;46331;49.252;8.904;2023-04-26T02:22:07;99860.41;;;2.48;96.15
60489;BME280;46331;49.252;8.904;2023-04-26T02:22:47;99867.25;;;2.49;96.39
60489;BME280;46331;49.252;8.904;2023-04-26T02:23:28;99861.59;;;2.46;96.63
60489;BME280;46331;49.252;8.904;2023-04-26T02:24:11;99866.63;;;2.47;96.38
60489;BME280;46331;49.252;8.904;2023-04-26T02:24:52;99866.81;;;2.46;96.05
60489;BME280;46331;49.252;8.904;2023-04-26T02:25:33;99861.75;;;2.44;96.02
60489;BME280;46331;49.252;8.904;2023-04-26T02:26:13;99868.63;;;2.45;96.04
60489;BME280;46331;49.252;8.904;2023-04-26T02:26:57;99867.00;;;2.44;96.46
60489;BME280;46331;49.252;8.904;2023-04-26T02:27:42;99870.41;;;2.45;96.50
60489;BME280;46331;49.252;8.904;2023-04-26T02:28:23;99865.00;;;2.46;96.80
60489;BME280;46331;49.252;8.904;2023-04-26T02:29:03;99867.63;;;2.46;96.87
60489;BME280;46331;49.252;8.904;2023-04-26T02:29:44;99868.44;;;2.47;97.08
60489;BME280;46331;49.252;8.904;2023-04-26T02:30:26;99867.72;;;2.53;99.94
60489;BME280;46331;49.252;8.904;2023-04-26T02:31:07;99869.34;;;2.54;99.23
60489;BME280;46331;49.252;8.904;2023-04-26T02:31:48;99867.38;;;2.56;99.40
60489;BME280;46331;49.252;8.904;2023-04-26T02:32:29;99869.44;;;2.61;98.90
60489;BME280;46331;49.252;8.904;2023-04-26T02:33:11;99870.25;;;2.61;98.35
60489;BME280;46331;49.252;8.904;2023-04-26T02:33:52;99866.81;;;2.61;98.13
60489;BME280;46331;49.252;8.904;2023-04-26T02:34:32;99870.59;;;2.58;97.33
60489;BME280;46331;49.252;8.904;2023-04-26T02:35:13;99874.38;;;2.56;96.38
60489;BME280;46331;49.252;8.904;2023-04-26T02:35:55;99878.38;;;2.52;96.24
60489;BME280;46331;49.252;8.904;2023-04-26T02:36:35;99871.69;;;2.49;95.71
60489;BME280;46331;49.252;8.904;2023-04-26T02:37:16;99866.81;;;2.46;95.74
60489;BME280;46331;49.252;8.904;2023-04-26T02:37:56;99875.03;;;2.43;95.77
60489;BME280;46331;49.252;8.904;2023-04-26T02:38:38;99871.97;;;2.39;96.14
60489;BME280;46331;49.252;8.904;2023-04-26T02:39:19;99873.94;;;2.37;96.43
60489;BME280;46331;49.252;8.904;2023-04-26T02:40:00;99880.34;;;2.35;96.28
60489;BME280;46331;49.252;8.904;2023-04-26T02:40:40;99872.03;;;2.31;96.25
60489;BME280;46331;49.252;8.904;2023-04-26T02:41:22;99883.50;;;2.30;96.50
60489;BME280;46331;49.252;8.904;2023-04-26T02:42:08;99874.66;;;2.31;96.83
60489;BME280;46331;49.252;8.904;2023-04-26T02:42:49;99881.69;;;2.30;96.77
60489;BME280;46331;49.252;8.904;2023-04-26T02:43:30;99876.66;;;2.29;96.74
60489;BME280;46331;49.252;8.904;2023-04-26T02:44:10;99878.28;;;2.30;96.57
60489;BME280;46331;49.252;8.904;2023-04-26T02:44:51;99877.63;;;2.28;96.41
60489;BME280;46331;49.252;8.904;2023-04-26T02:45:32;99876.03;;;2.27;96.85
60489;BME280;46331;49.252;8.904;2023-04-26T02:46:13;99882.22;;;2.26;96.80
60489;BME280;46331;49.252;8.904;2023-04-26T02:46:54;99873.59;;;2.25;96.95
60489;BME280;46331;49.252;8.904;2023-04-26T02:47:34;99882.59;;;2.23;97.17
60489;BME280;46331;49.252;8.904;2023-04-26T02:48:16;99872.13;;;2.23;97.35
60489;BME280;46331;49.252;8.904;2023-04-26T02:48:56;99872.31;;;2.21;97.26
60489;BME280;46331;49.252;8.904;2023-04-26T02:49:37;99877.72;;;2.20;97.02
60489;BME280;46331;49.252;8.904;2023-04-26T02:50:17;99872.31;;;2.21;97.22
60489;BME280;46331;49.252;8.904;2023-04-26T02:50:58;99874.13;;;2.21;97.32
60489;BME280;46331;49.252;8.904;2023-04-26T02:51:39;99872.66;;;2.18;97.14
60489;BME280;46331;49.252;8.904;2023-04-26T02:52:19;99876.09;;;2.19;97.03
60489;BME280;46331;49.252;8.904;2023-04-26T02:53:01;99877.09;;;2.18;97.16
60489;BME280;46331;49.252;8.904;2023-04-26T02:53:42;99877.28;;;2.16;97.43
60489;BME280;46331;49.252;8.904;2023-04-26T02:54:23;99874.66;;;2.16;97.11
60489;BME280;46331;49.252;8.904;2023-04-26T02:55:05;99876.63;;;2.14;96.87
60489;BME280;46331;49.252;8.904;2023-04-26T02:55:46;99871.56;;;2.12;96.84
60489;BME280;46331;49.252;8.904;2023-04-26T02:56:27;99878.59;;;2.12;97.14
60489;BME280;46331;49.252;8.904;2023-04-26T02:57:08;99872.75;;;2.10;97.13
60489;BME280;46331;49.252;8.904;2023-04-26T02:57:49;99869.47;;;2.08;96.61
60489;BME280;46331;49.252;8.904;2023-04-26T02:58:29;99869.47;;;2.08;96.71
60489;BME280;46331;49.252;8.904;2023-04-26T02:59:10;99864.78;;;2.03;96.95
60489;BME280;46331;49.252;8.904;2023-04-26T02:59:50;99867.41;;;2.03;97.12
60489;BME280;46331;49.252;8.904;2023-04-26T03:00:31;99864.97;;;2.02;97.26
60489;BME280;46331;49.252;8.904;2023-04-26T03:01:14;99860.75;;;2.01;97.14
60489;BME280;46331;49.252;8.904;2023-04-26T03:01:56;99855.69;;;1.99;96.93
60489;BME280;46331;49.252;8.904;2023-04-26T03:02:37;99859.09;;;2.00;97.33
60489;BME280;46331;49.252;8.904;2023-04-26T03:03:17;99864.50;;;1.98;97.50
60489;BME280;46331;49.252;8.904;2023-04-26T03:04:00;99870.72;;;1.97;97.43
60489;BME280;46331;49.252;8.904;2023-04-26T03:04:41;99871.72;;;1.96;97.23
60489;BME280;46331;49.252;8.904;2023-04-26T03:05:22;99867.47;;;1.95;97.29
60489;BME280;46331;49.252;8.904;2023-04-26T03:06:03;99867.66;;;1.93;97.35
60489;BME280;46331;49.252;8.904;2023-04-26T03:06:43;99870.44;;;1.92;97.26
60489;BME280;46331;49.252;8.904;2023-04-26T03:07:24;99866.56;;;1.88;97.35
60489;BME280;46331;49.252;8.904;2023-04-26T03:08:05;99865.94;;;1.86;97.63
60489;BME280;46331;49.252;8.904;2023-04-26T03:08:47;99875.41;;;1.87;97.69
60489;BME280;46331;49.252;8.904;2023-04-26T03:09:27;99871.97;;;1.86;97.30
60489;BME280;46331;49.252;8.904;2023-04-26T03:10:08;99863.66;;;1.83;97.15
60489;BME280;46331;49.252;8.904;2023-04-26T03:10:50;99867.59;;;1.78;96.06
60489;BME280;46331;49.252;8.904;2023-04-26T03:11:30;99874.28;;;1.81;96.98
60489;BME280;46331;49.252;8.904;2023-04-26T03:12:11;99875.44;;;1.78;96.75
60489;BME280;46331;49.252;8.904;2023-04-26T03:12:52;99870.22;;;1.78;97.23
60489;BME280;46331;49.252;8.904;2023-04-26T03:13:32;99868.63;;;1.77;96.86
60489;BME280;46331;49.252;8.904;2023-04-26T03:14:13;99869.78;;;1.75;97.53
60489;BME280;46331;49.252;8.904;2023-04-26T03:14:54;99866.97;;;1.76;97.66
60489;BME280;46331;49.252;8.904;2023-04-26T03:15:37;99871.41;;;1.76;98.67
60489;BME280;46331;49.252;8.904;2023-04-26T03:16:18;99871.06;;;1.79;99.34
60489;BME280;46331;49.252;8.904;2023-04-26T03:17:00;99873.84;;;1.77;99.12
60489;BME280;46331;49.252;8.904;2023-04-26T03:17:43;99878.06;;;1.78;99.50
60489;BME280;46331;49.252;8.904;2023-04-26T03:18:24;99871.69;;;1.81;100.00
60489;BME280;46331;49.252;8.904;2023-04-26T03:19:05;99878.81;;;1.87;100.00
60489;BME280;46331;49.252;8.904;2023-04-26T03:19:45;99876.38;;;1.86;100.00
60489;BME280;46331;49.252;8.904;2023-04-26T03:20:26;99874.53;;;1.94;100.00
60489;BME280;46331;49.252;8.904;2023-04-26T03:21:07;99874.34;;;1.96;100.00
60489;BME280;46331;49.252;8.904;2023-04-26T03:21:48;99876.59;;;1.99;99.88
60489;BME280;46331;49.252;8.904;2023-04-26T03:22:29;99877.41;;;2.00;99.82
60489;BME280;46331;49.252;8.904;2023-04-26T03:23:09;99876.25;;;2.02;99.63
60489;BME280;46331;49.252;8.904;2023-04-26T03:23:50;99875.25;;;2.03;99.69
60489;BME280;46331;49.252;8.904;2023-04-26T03:24:31;99874.44;;;2.03;99.06
60489;BME280;46331;49.252;8.904;2023-04-26T03:25:12;99871.38;;;1.99;98.43
60489;BME280;46331;49.252;8.904;2023-04-26T03:25:52;99881.34;;;1.95;98.09
60489;BME280;46331;49.252;8.904;2023-04-26T03:26:33;99874.69;;;1.93;98.19
60489;BME280;46331;49.252;8.904;2023-04-26T03:27:14;99883.53;;;1.92;98.72
60489;BME280;46331;49.252;8.904;2023-04-26T03:27:54;99877.66;;;1.90;98.79
60489;BME280;46331;49.252;8.904;2023-04-26T03:28:38;99882.06;;;1.89;98.97
60489;BME280;46331;49.252;8.904;2023-04-26T03:29:19;99867.56;;;1.87;98.78
60489;BME280;46331;49.252;8.904;2023-04-26T03:29:59;99868.53;;;1.86;99.49
60489;BME280;46331;49.252;8.904;2023-04-26T03:30:41;99878.81;;;1.87;98.96
60489;BME280;46331;49.252;8.904;2023-04-26T03:31:22;99874.75;;;1.85;99.38
60489;BME280;46331;49.252;8.904;2023-04-26T03:32:03;99875.59;;;1.85;99.34
60489;BME280;46331;49.252;8.904;2023-04-26T03:32:44;99875.75;;;1.84;99.13
60489;BME280;46331;49.252;8.904;2023-04-26T03:33:24;99877.38;;;1.85;99.17
60489;BME280;46331;49.252;8.904;2023-04-26T03:34:05;99872.97;;;1.85;98.87
60489;BME280;46331;49.252;8.904;2023-04-26T03:34:47;99870.53;;;1.84;98.71
60489;BME280;46331;49.252;8.904;2023-04-26T03:35:29;99875.09;;;1.82;98.76
60489;BME280;46331;49.252;8.904;2023-04-26T03:36:09;99875.44;;;1.78;99.21
60489;BME280;46331;49.252;8.904;2023-04-26T03:36:51;99875.28;;;1.80;99.33
60489;BME280;46331;49.252;8.904;2023-04-26T03:37:32;99867.78;;;1.77;98.97
60489;BME280;46331;49.252;8.904;2023-04-26T03:38:17;99876.47;;;1.77;98.54
60489;BME280;46331;49.252;8.904;2023-04-26T03:38:58;99868.97;;;1.74;98.32
60489;BME280;46331;49.252;8.904;2023-04-26T03:39:39;99881.69;;;1.77;98.64
60489;BME280;46331;49.252;8.904;2023-04-26T03:40:20;99878.75;;;1.72;98.12
60489;BME280;46331;49.252;8.904;2023-04-26T03:41:00;99879.44;;;1.74;98.51